地図

経路データ

SID SEASON NUMBER BASIN SUBBASIN NAME ISO_TIME NATURE LAT LON WMO_WIND WMO_PRES WMO_AGENCY TRACK_TYPE DIST2LAND LANDFALL IFLAG USA_AGENCY USA_ATCF_ID USA_LAT USA_LON USA_RECORD USA_STATUS USA_WIND USA_PRES USA_SSHS USA_R34_NE USA_R34_SE USA_R34_SW USA_R34_NW USA_R50_NE USA_R50_SE USA_R50_SW USA_R50_NW USA_R64_NE USA_R64_SE USA_R64_SW USA_R64_NW USA_POCI USA_ROCI USA_RMW USA_EYE TOKYO_LAT TOKYO_LON TOKYO_GRADE TOKYO_WIND TOKYO_PRES TOKYO_R50_DIR TOKYO_R50_LONG TOKYO_R50_SHORT TOKYO_R30_DIR TOKYO_R30_LONG TOKYO_R30_SHORT TOKYO_LAND CMA_LAT CMA_LON CMA_CAT CMA_WIND CMA_PRES HKO_LAT HKO_LON HKO_CAT HKO_WIND HKO_PRES NEWDELHI_LAT NEWDELHI_LON NEWDELHI_GRADE NEWDELHI_WIND NEWDELHI_PRES NEWDELHI_CI NEWDELHI_DP NEWDELHI_POCI REUNION_LAT REUNION_LON REUNION_TYPE REUNION_WIND REUNION_PRES REUNION_TNUM REUNION_CI REUNION_RMW REUNION_R34_NE REUNION_R34_SE REUNION_R34_SW REUNION_R34_NW REUNION_R50_NE REUNION_R50_SE REUNION_R50_SW REUNION_R50_NW REUNION_R64_NE REUNION_R64_SE REUNION_R64_SW REUNION_R64_NW BOM_LAT BOM_LON BOM_TYPE BOM_WIND BOM_PRES BOM_TNUM BOM_CI BOM_RMW BOM_R34_NE BOM_R34_SE BOM_R34_SW BOM_R34_NW BOM_R50_NE BOM_R50_SE BOM_R50_SW BOM_R50_NW BOM_R64_NE BOM_R64_SE BOM_R64_SW BOM_R64_NW BOM_ROCI BOM_POCI BOM_EYE BOM_POS_METHOD BOM_PRES_METHOD NADI_LAT NADI_LON NADI_CAT NADI_WIND NADI_PRES WELLINGTON_LAT WELLINGTON_LON WELLINGTON_WIND WELLINGTON_PRES DS824_LAT DS824_LON DS824_STAGE DS824_WIND DS824_PRES TD9636_LAT TD9636_LON TD9636_STAGE TD9636_WIND TD9636_PRES TD9635_LAT TD9635_LON TD9635_WIND TD9635_PRES TD9635_ROCI NEUMANN_LAT NEUMANN_LON NEUMANN_CLASS NEUMANN_WIND NEUMANN_PRES MLC_LAT MLC_LON MLC_CLASS MLC_WIND MLC_PRES USA_GUST BOM_GUST BOM_GUST_PER REUNION_GUST REUNION_GUST_PER USA_SEAHGT USA_SEARAD_NE USA_SEARAD_SE USA_SEARAD_SW USA_SEARAD_NW STORM_SPEED STORM_DIR
1957002S14144 1957 1 SP EA NOT_NAMED 1957-01-02 00:00:00 TS -14.2000 143.600 main 0 0 O________OO___ jtwc_sh SH101957 -14.2000 143.600 -1 -14.2000 143.600 TC -14.2000 143.600 1 22 95
1957002S14144 1957 1 SP EA NOT_NAMED 1957-01-02 03:00:00 TS -14.3009 144.714 main 15 15 P________PP___ SH101957 -14.2913 144.740 -1 -14.2913 144.740 TC -14.3203 144.663 1 21 96
1957002S14144 1957 1 SP EA NOT_NAMED 1957-01-02 06:00:00 TS -14.4134 145.764 main 85 85 O________OP___ jtwc_sh SH101957 -14.4000 145.800 -1 -14.4000 145.800 TC -14.4403 145.691 1 19 97
1957002S14144 1957 1 SP EA NOT_NAMED 1957-01-02 09:00:00 TS -14.5497 146.695 main 160 157 P________PP___ SH101957 -14.5420 146.717 -1 -14.5420 146.717 TC -14.5650 146.649 1 17 100
1957002S14144 1957 1 SP EA NOT_NAMED 1957-01-02 12:00:00 TS -14.7000 147.500 main 235 235 O________OO___ jtwc_sh SH101957 -14.7000 147.500 -1 -14.7000 147.500 TC -14.7000 147.500 1 15 101
1957002S14144 1957 1 SP EA NOT_NAMED 1957-01-02 15:00:00 TS -14.8403 148.199 main 305 305 P________PP___ SH101957 -14.8346 148.188 -1 -14.8346 148.188 TC -14.8518 148.222 1 13 104
1957002S14144 1957 1 SP EA NOT_NAMED 1957-01-02 18:00:00 TS -15.0099 148.816 main 366 366 O________OP___ jtwc_sh SH101957 -15.0000 148.800 -1 -15.0000 148.800 TC -15.0297 148.849 1 12 108
1957002S14144 1957 1 SP EA NOT_NAMED 1957-01-02 21:00:00 TS -15.2274 149.409 main 424 424 P________PP___ SH101957 -15.2197 149.400 -1 -15.2197 149.400 TC -15.2428 149.426 1 12 113
1957002S14144 1957 1 SP EA NOT_NAMED 1957-01-03 00:00:00 TS -15.5000 150.000 main 467 467 O________OO___ jtwc_sh SH101957 -15.5000 150.000 -1 -15.5000 150.000 TC -15.5000 150.000 1 13 117
1957002S14144 1957 1 SP EA NOT_NAMED 1957-01-03 03:00:00 TS -15.8309 150.649 main 511 511 P________PP___ SH101957 -15.8349 150.643 -1 -15.8349 150.643 TC -15.8230 150.662 1 14 119
1957002S14144 1957 1 SP EA NOT_NAMED 1957-01-03 06:00:00 TS -16.1950 151.310 main 529 524 O________OP___ jtwc_sh SH101957 -16.2000 151.300 -1 -16.2000 151.300 TC -16.1850 151.329 1 15 120
1957002S14144 1957 1 SP EA NOT_NAMED 1957-01-03 09:00:00 TS -16.5564 151.966 main 534 532 P________PP___ SH101957 -16.5574 151.958 -1 -16.5574 151.958 TC -16.5544 151.981 1 14 120
1957002S14144 1957 1 SP EA NOT_NAMED 1957-01-03 12:00:00 TS -16.9000 152.600 main 552 552 O________OO___ jtwc_sh SH101957 -16.9000 152.600 -1 -16.9000 152.600 TC -16.9000 152.600 1 14 119
1957002S14144 1957 1 SP EA NOT_NAMED 1957-01-03 15:00:00 TS -17.2172 153.215 main 578 578 P________PP___ SH101957 -17.2224 153.230 -1 -17.2224 153.230 TC -17.2066 153.186 1 13 118
1957002S14144 1957 1 SP EA NOT_NAMED 1957-01-03 18:00:00 TS -17.4940 153.778 main 612 612 O________OP___ jtwc_sh SH101957 -17.5000 153.800 -1 -17.5000 153.800 TC -17.4819 153.733 1 11 117
1957002S14144 1957 1 SP EA NOT_NAMED 1957-01-03 21:00:00 TS -17.7253 154.266 main 646 637 P________PP___ SH101957 -17.7298 154.280 -1 -17.7298 154.280 TC -17.7162 154.238 1 10 115
1957002S14144 1957 1 SP EA NOT_NAMED 1957-01-04 00:00:00 TS -17.9000 154.700 main 653 653 O________OO___ jtwc_sh SH101957 -17.9000 154.700 -1 -17.9000 154.700 TC -17.9000 154.700 1 9 110
1957002S14144 1957 1 SP EA NOT_NAMED 1957-01-04 03:00:00 TS -18.0191 155.119 main 672 672 P________PP___ SH101957 -18.0224 155.115 -1 -18.0224 155.115 TC -18.0125 155.127 1 8 104
1957002S14144 1957 1 SP EA NOT_NAMED 1957-01-04 06:00:00 TS -18.0931 155.504 main 694 694 O________OP___ jtwc_sh SH101957 -18.1000 155.500 -1 -18.1000 155.500 TC -18.0793 155.511 1 7 100
1957002S14144 1957 1 SP EA NOT_NAMED 1957-01-04 09:00:00 TS -18.1388 155.865 main 724 724 P________PP___ SH101957 -18.1424 155.865 -1 -18.1424 155.865 TC -18.1314 155.865 1 7 99
1957002S14144 1957 1 SP EA NOT_NAMED 1957-01-04 12:00:00 TS -18.2000 156.200 main 740 740 O________OO___ jtwc_sh SH101957 -18.2000 156.200 -1 -18.2000 156.200 TC -18.2000 156.200 1 6 108
1957002S14144 1957 1 SP EA NOT_NAMED 1957-01-04 15:00:00 TS -18.3297 156.497 main 757 750 P________PP___ SH101957 -18.3349 156.500 -1 -18.3349 156.500 TC -18.3193 156.491 1 6 117
1957002S14144 1957 1 SP EA NOT_NAMED 1957-01-04 18:00:00 TS -18.4870 156.792 main 768 747 O________OP___ jtwc_sh SH101957 -18.5000 156.800 -1 -18.5000 156.800 TC -18.4609 156.776 1 7 118
1957002S14144 1957 1 SP EA NOT_NAMED 1957-01-04 21:00:00 TS -18.6355 157.103 main 747 731 P________PP___ SH101957 -18.6422 157.105 -1 -18.6422 157.105 TC -18.6222 157.098 1 6 129
1957002S14144 1957 1 SP EA NOT_NAMED 1957-01-04 23:00:00 TS -18.8084 157.218 1000 bom main 731 729 P_____O__PP___ SH101957 -18.7441 157.352 -1 -19.6000 155.600 1000 -18.7441 157.352 TC -18.7391 157.354 1 7 174
1957002S14144 1957 1 SP EA NOT_NAMED 1957-01-05 00:00:00 TS -18.9645 157.151 main 726 691 O_____P__OO___ jtwc_sh SH101957 -18.8000 157.500 -1 -19.6336 155.733 999 -18.8000 157.500 TC -18.8000 157.500 1 7 145
1957002S14144 1957 1 SP EA NOT_NAMED 1957-01-05 03:00:00 TS -19.2103 157.511 main 691 645 P_____P__PP___ SH101957 -18.9925 158.055 -1 -19.7340 156.143 998 -18.9925 158.055 TC -18.9946 158.054 1 9 122
1957002S14144 1957 1 SP EA NOT_NAMED 1957-01-05 06:00:00 TS -19.4368 157.954 main 635 580 O_____P__OP___ jtwc_sh SH101957 -19.2000 158.700 -1 -19.8340 156.592 997 -19.2000 158.700 TC -19.2013 158.689 1 10 114
1957002S14144 1957 1 SP EA NOT_NAMED 1957-01-05 09:00:00 TS -19.6266 158.498 main 580 537 P_____P__PP___ SH101957 -19.4076 159.365 -1 -19.9338 157.106 996 -19.4076 159.365 TC -19.4071 159.355 1 11 108
1957002S14144 1957 1 SP EA NOT_NAMED 1957-01-05 11:00:00 TS -19.7350 158.904 996 bom main 537 514 P_____O__PP___ SH101957 -19.5391 159.798 -1 -20.0000 157.500 996 -19.5391 159.798 TC -19.5378 159.790 1 12 106
1957002S14144 1957 1 SP EA NOT_NAMED 1957-01-05 12:00:00 TS -19.7866 159.103 main 514 451 O_____P__OO___ jtwc_sh SH101957 -19.6000 160.000 -1 -20.0331 157.715 995 -19.6000 160.000 TC -19.6000 160.000 1 12 104
1957002S14144 1957 1 SP EA NOT_NAMED 1957-01-05 15:00:00 TS -19.9330 159.738 main 451 386 P_____P__PP___ SH101957 -19.7571 160.515 -1 -20.1392 158.439 994 -19.7571 160.515 TC -19.7546 160.522 1 12 104
1957002S14144 1957 1 SP MM NOT_NAMED 1957-01-05 18:00:00 TS -20.0755 160.381 main 376 302 O_____P__OP___ jtwc_sh SH101957 -19.9000 161.000 -1 -20.2708 159.287 993 -19.9000 161.000 TC -19.8976 161.022 1 13 102
1957002S14144 1957 1 SP MM NOT_NAMED 1957-01-05 21:00:00 TS -20.2088 161.098 main 302 250 P_____P__PP___ SH101957 -20.0422 161.520 -1 -20.4476 160.268 992 -20.0422 161.520 TC -20.0420 161.535 1 14 101
1957002S14144 1957 1 SP MM NOT_NAMED 1957-01-05 23:00:00 TS -20.3021 161.611 992 bom main 250 218 P_____O__PP___ SH101957 -20.1441 161.897 -1 -20.6000 161.000 992 -20.1441 161.897 TC -20.1450 161.904 1 16 98
1957002S14144 1957 1 SP MM NOT_NAMED 1957-01-06 00:00:00 TS -20.3228 161.923 main 218 137 O_____P__OO___ jtwc_sh SH101957 -20.2000 162.100 -1 -20.6882 161.390 991 -20.2000 162.100 TC -20.2000 162.100 1 16 99
1957002S14144 1957 1 SP MM NOT_NAMED 1957-01-06 03:00:00 TS -20.4791 162.753 main 127 80 P_____P__PP___ SH101957 -20.3924 162.770 -1 -20.9877 162.635 990 -20.3924 162.770 TC -20.3983 162.779 1 16 102
1957002S14144 1957 1 SP MM NOT_NAMED 1957-01-06 05:00:00 TS -20.5844 163.275 990 bom main 80 61 P_____O__PP___ SH101957 -20.5306 163.253 -1 -21.2000 163.500 990 4 -20.5306 163.253 TC -20.5379 163.264 1 14 100
1957002S14144 1957 1 SP MM NOT_NAMED 1957-01-06 06:00:00 TS -20.6027 163.504 main 61 20 O________OP___ jtwc_sh SH101957 -20.6000 163.500 -1 -20.6000 163.500 TC -20.6082 163.512 1 14 104
1957002S14144 1957 1 SP MM NOT_NAMED 1957-01-06 09:00:00 TS -20.8146 164.259 main 10 0 P________PP___ SH101957 -20.8150 164.257 -1 -20.8150 164.257 TC -20.8138 164.264 1 15 106
1957002S14144 1957 1 SP MM NOT_NAMED 1957-01-06 12:00:00 TS -21.0000 165.000 main 0 0 O________OO___ jtwc_sh SH101957 -21.0000 165.000 -1 -21.0000 165.000 TC -21.0000 165.000 1 13 103
1957002S14144 1957 1 SP MM NOT_NAMED 1957-01-06 15:00:00 TS -21.1089 165.664 main 15 15 P________PP___ SH101957 -21.1071 165.665 -1 -21.1071 165.665 TC -21.1126 165.661 1 12 100
1957002S14144 1957 1 SP MM NOT_NAMED 1957-01-06 18:00:00 TS -21.2035 166.301 main 39 39 O________OP___ jtwc_sh SH101957 -21.2000 166.300 -1 -21.2000 166.300 TC -21.2105 166.303 1 12 100
1957002S14144 1957 1 SP MM NOT_NAMED 1957-01-06 21:00:00 TS -21.3225 166.943 main 68 68 P________PP___ SH101957 -21.3197 166.943 -1 -21.3197 166.943 TC -21.3282 166.943 1 12 104
1957002S14144 1957 1 SP MM NOT_NAMED 1957-01-07 00:00:00 TS -21.5000 167.600 main 98 98 O________OO___ jtwc_sh SH101957 -21.5000 167.600 -1 -21.5000 167.600 TC -21.5000 167.600 1 13 110
1957002S14144 1957 1 SP MM NOT_NAMED 1957-01-07 03:00:00 TS -21.7730 168.296 main 141 141 P________PP___ SH101957 -21.7697 168.285 -1 -21.7697 168.285 TC -21.7797 168.318 1 15 115
1957002S14144 1957 1 SP MM NOT_NAMED 1957-01-07 06:00:00 TS -22.1042 169.019 main 206 206 O________OP___ jtwc_sh SH101957 -22.1000 169.000 -1 -22.1000 169.000 TC -22.1126 169.056 1 15 117
1957002S14144 1957 1 SP MM NOT_NAMED 1957-01-07 09:00:00 TS -22.4597 169.773 main 288 288 P________PP___ SH101957 -22.4575 169.765 -1 -22.4575 169.765 TC -22.4641 169.791 1 15 117
1957002S14144 1957 1 SP MM NOT_NAMED 1957-01-07 12:00:00 TS -22.8000 170.500 main 363 363 O________OO___ jtwc_sh SH101957 -22.8000 170.500 -1 -22.8000 170.500 TC -22.8000 170.500 1 14 116
1957002S14144 1957 1 SP MM NOT_NAMED 1957-01-07 15:00:00 TS -23.0606 171.120 main 429 429 P________PP___ SH101957 -23.0644 171.116 -1 -23.0644 171.116 TC -23.0531 171.128 1 12 114
1957002S14144 1957 1 SP MM NOT_NAMED 1957-01-07 18:00:00 TS -23.2965 171.710 main 494 494 O________OP___ jtwc_sh SH101957 -23.3000 171.700 -1 -23.3000 171.700 TC -23.2894 171.731 1 12 113
1957002S14144 1957 1 SP MM NOT_NAMED 1957-01-07 21:00:00 TS -23.5334 172.328 main 558 558 P________PP___ SH101957 -23.5345 172.321 -1 -23.5345 172.321 TC -23.5311 172.344 1 13 113
1957002S14144 1957 1 SP MM NOT_NAMED 1957-01-08 00:00:00 TS -23.8000 173.000 main 636 636 O________OO___ jtwc_sh SH101957 -23.8000 173.000 -1 -23.8000 173.000 TC -23.8000 173.000 1 14 114
1957002S14144 1957 1 SP MM NOT_NAMED 1957-01-08 03:00:00 TS -24.1277 173.770 main 723 723 P________PP___ SH101957 -24.1349 173.778 -1 -24.1349 173.778 TC -24.1133 173.754 1 16 115
1957002S14144 1957 1 SP MM NOT_NAMED 1957-01-08 06:00:00 TS -24.4851 174.585 main 768 764 O________OP___ jtwc_sh SH101957 -24.5000 174.600 -1 -24.5000 174.600 TC -24.4552 174.556 1 16 116
1957002S14144 1957 1 SP MM NOT_NAMED 1957-01-08 09:00:00 TS -24.8345 175.394 main 771 771 P________PP___ SH101957 -24.8421 175.401 -1 -24.8421 175.401 TC -24.8193 175.380 1 16 116
1957002S14144 1957 1 SP MM NOT_NAMED 1957-01-08 12:00:00 TS -25.2000 176.200 main 791 788 O________OO___ jtwc_sh SH101957 -25.2000 176.200 -1 -25.2000 176.200 TC -25.2000 176.200 1 16 118
1957002S14144 1957 1 SP MM NOT_NAMED 1957-01-08 15:00:00 TS -25.5952 177.006 main 821 820 P________PP___ SH101957 -25.5922 177.008 -1 -25.5922 177.008 TC -25.6011 177.002 1 17 119
1957002S14144 1957 1 SP MM NOT_NAMED 1957-01-08 18:00:00 TS -26.0047 177.798 main 860 860 O________OP___ jtwc_sh SH101957 -26.0000 177.800 -1 -26.0000 177.800 TC -26.0142 177.795 1 16 120
1957002S14144 1957 1 SP MM NOT_NAMED 1957-01-08 21:00:00 TS -26.4164 178.565 main 906 906 P________PP___ SH101957 -26.4146 178.565 -1 -26.4146 178.565 TC -26.4201 178.565 1 16 121
1957002S14144 1957 1 SP MM NOT_NAMED 1957-01-09 00:00:00 TS -26.8000 179.300 main 956 956 O________OO___ jtwc_sh SH101957 -26.8000 179.300 -1 -26.8000 179.300 TC -26.8000 179.300 1 15 119
1957002S14144 1957 1 SP MM NOT_NAMED 1957-01-09 03:00:00 TS -27.1217 180.018 main 1000 1000 P________PP___ SH101957 -27.1147 -179.977 -1 -27.1147 -179.977 TC -27.1356 -179.992 1 14 116
1957002S14144 1957 1 SP MM NOT_NAMED 1957-01-09 06:00:00 TS -27.4145 180.692 main 1048 1048 O________OP___ jtwc_sh SH101957 -27.4000 -179.300 -1 -27.4000 180.700 TC -27.4436 -179.323 1 13 117
1957002S14144 1957 1 SP MM NOT_NAMED 1957-01-09 09:00:00 TS -27.7147 181.318 main 1075 1072 P________PP___ SH101957 -27.7071 -178.677 -1 -27.7071 -178.677 TC -27.7297 -178.693 1 12 119
1957002S14144 1957 1 SP MM NOT_NAMED 1957-01-09 12:00:00 TS -28.0000 181.900 main 1084 1082 O________OO___ jtwc_sh SH101957 -28.0000 -178.100 -1 -28.0000 181.900 TC -28.0000 -178.100 1 12 118
1957002S14144 1957 1 SP MM NOT_NAMED 1957-01-09 15:00:00 TS -28.2595 182.479 main 1098 1098 P________PP___ SH101957 -28.2573 -177.535 -1 -28.2573 -177.535 TC -28.2640 -177.494 1 11 117
1957002S14144 1957 1 SP MM NOT_NAMED 1957-01-09 18:00:00 TS -28.5049 183.024 main 1104 1093 O________OP___ jtwc_sh SH101957 -28.5000 -177.000 -1 -28.5000 183.000 TC -28.5147 -176.929 1 11 118
1957002S14144 1957 1 SP MM NOT_NAMED 1957-01-09 21:00:00 TS -28.7527 183.545 main 1091 1086 P________PP___ SH101957 -28.7500 -176.470 -1 -28.7500 -176.470 TC -28.7581 -176.425 1 10 120
1957002S14144 1957 1 SP MM NOT_NAMED 1957-01-10 00:00:00 TS -29.0000 184.000 main 1091 1084 O________OO___ jtwc_sh SH101957 -29.0000 -176.000 -1 -29.0000 184.000 TC -29.0000 -176.000 1 9 124
1957002S14144 1957 1 SP MM NOT_NAMED 1957-01-10 03:00:00 TS -29.2456 184.391 main 1088 1068 P________PP___ SH101957 -29.2499 -175.597 -1 -29.2499 -175.597 TC -29.2369 -175.634 1 8 130
1957002S14144 1957 1 SP MM NOT_NAMED 1957-01-10 06:00:00 TS -29.4922 184.684 main 1073 1059 O________OP___ jtwc_sh SH101957 -29.5000 -175.300 -1 -29.5000 184.700 TC -29.4765 -175.349 1 7 139
1957002S14144 1957 1 SP MM NOT_NAMED 1957-01-10 09:00:00 TS -29.7375 184.883 main 1064 1040 P________PP___ SH101957 -29.7424 -175.105 -1 -29.7424 -175.105 TC -29.7279 -175.140 1 6 152
1957002S14144 1957 1 SP MM NOT_NAMED 1957-01-10 12:00:00 TS -30.0000 185.000 main 1040 1018 O________OO___ jtwc_sh SH101957 -30.0000 -175.000 -1 -30.0000 185.000 TC -30.0000 -175.000 1 6 163
1957002S14144 1957 1 SP MM NOT_NAMED 1957-01-10 15:00:00 TS -30.2924 185.077 main 1018 990 P________PP___ SH101957 -30.2850 -174.927 -1 -30.2850 -174.927 TC -30.3072 -174.913 1 6 172
1957002S14144 1957 1 SP MM NOT_NAMED 1957-01-10 18:00:00 TS -30.6116 185.104 main 990 963 O________OP___ jtwc_sh SH101957 -30.6000 -174.900 -1 -30.6000 185.100 TC -30.6347 -174.889 1 7 179
1957002S14144 1957 1 SP MM NOT_NAMED 1957-01-10 21:00:00 TS -30.9566 185.102 main 954 927 P________PP___ SH101957 -30.9500 -174.900 -1 -30.9500 -174.900 TC -30.9698 -174.895 1 7 182
1957002S14144 1957 1 SP MM NOT_NAMED 1957-01-11 00:00:00 TS -31.3000 185.100 main 927 901 O________OO___ jtwc_sh SH101957 -31.3000 -174.900 -1 -31.3000 185.100 TC -31.3000 -174.900 1 7 176
1957002S14144 1957 1 SP MM NOT_NAMED 1957-01-11 03:00:00 TS -31.6074 185.136 main 901 882 P________PP___ SH101957 -31.6075 -174.858 -1 -31.6075 -174.858 TC -31.6071 -174.877 1 6 173
1957002S14144 1957 1 SP MM NOT_NAMED 1957-01-11 06:00:00 TS -31.9024 185.185 main 882 857 O________OP___ jtwc_sh SH101957 -31.9000 -174.800 -1 -31.9000 185.200 TC -31.9073 -174.844 1 6 173
1957002S14144 1957 1 SP MM NOT_NAMED 1957-01-11 09:00:00 TS -32.2013 185.227 main 857 839 P________PP___ SH101957 -32.2000 -174.765 -1 -32.2000 -174.765 TC -32.2039 -174.789 1 6 171
1957002S14144 1957 1 SP MM NOT_NAMED 1957-01-11 12:00:00 TS -32.5000 185.300 main 839 822 O________OO___ jtwc_sh SH101957 -32.5000 -174.700 -1 -32.5000 185.300 TC -32.5000 -174.700 1 6 164
1957002S14144 1957 1 SP MM NOT_NAMED 1957-01-11 15:00:00 TS -32.7993 185.429 main 822 814 P________PP___ SH101957 -32.8000 -174.572 -1 -32.8000 -174.572 TC -32.7980 -174.567 1 7 157
1957002S14144 1957 1 SP MM NOT_NAMED 1957-01-11 18:00:00 TS -33.0993 185.600 main 814 806 O________OP___ jtwc_sh SH101957 -33.1000 -174.400 -1 -33.1000 185.600 TC -33.0979 -174.399 1 7 153
1957002S14144 1957 1 SP MM NOT_NAMED 1957-01-11 21:00:00 TS -33.3996 185.794 main 806 800 P________PP___ SH101957 -33.4001 -174.205 -1 -33.4001 -174.205 TC -33.3988 -174.206 1 7 151
1957002S14144 1957 1 SP MM NOT_NAMED 1957-01-12 00:00:00 TS -33.7000 186.000 main 801 O________OO___ jtwc_sh SH101957 -33.7000 -174.000 -1 -33.7000 186.000 TC -33.7000 -174.000 1 7 150

デジタル台風データ・検索

IBTrACS Databaseについて

本データベースは、米国NOAAが公開する1842年以降の世界の熱帯低気圧のベストトラックデータアーカイブInternational Best Track Archive for Climate Stewardship (IBTrACS)を、ウェブで閲覧しやすい形式に変換したものです。

最終更新日:2021-11-26